Latham, Missouri
Current Conditions -  °F | °C
As of 1:15 PM on Saturday 20 Dec 2014 (Local Time) from KVER Reporting Station
Overcast Overcast  
Wind Chill: 34°   Ceiling: 1100
Heat Index: 40°   Visibility: 10mi
Dew Point: 37°   Wind: 8mph
Humidity: 90%   Direction: 240°WSW
Pressure: 30.18"   Gusts: NA
Location:  38.56°N, 92.68°W
Report Text: KVER 201915Z AUTO 24007KT 10SM BKN011 OVC016 04/03 A3018 RMK AO2 T00430028
Loading
Personal Weather Stations






























Interactive Weather Map New forecast layout! Learn more

10-Day Weather Forecast

Advertisements
Track Severe Weather on mobile